RJOKRJOT

Guest
Details From RJOK - KOCHI
To RJOT - TAKAMATSU
Flight Number -
Tags generated
Created
Modified
Stats Distance 44 nm / 81 km
Max Altitude 2,700 ft / 823 m
Waypoints 3
Social Downloads 0
Likes 0
Share VATSIM

Download

Looking for another format? Having issues loading an existing format? Contact us
Advertisement - Login to hide

Notes

Basic altitude profile: - Ascent Rate: 2500ft/min - Ascent Speed: 250kts - Cruise Altitude: 35000ft - Cruise Speed: 420kts - Descent Rate: 1500ft/min - Descent Speed: 250kts Options: - Use NATs: yes - Use PACOTS: yes - Use low airways: yes - Use high airways: yes

Route

RJOK OBOKE RJOT

ID Type Via Altitude Latitude Longitude Leg Dist Tot Dist Heading (true) Name
O RJOK APT - 0 ft / 0 m 33.54602˚ 133.66940˚ - 0 nm - KOCHI
OBOKE FIX - 2,700 ft / 823 m 34.01497˚ 133.92152˚ 30 nm 30 nm 24° / 24° -
O RJOT APT - 0 ft / 0 m 34.21405˚ 134.01577˚ 12 nm 43 nm 21° / 21° TAKAMATSU

Altitude Profile

Advertisement - Login to hide

RJOK

Details ICAO RJOK (KCZ)
Name KOCHI
Region Japan
Timezone Asia/Tokyo (UTC+9.0)
Stats Elevation 42 ft / 13 m (AMSL)
Location 33.546023° 133.669396°
Runways 1
Magnetic Variation 7.391° W

METAR

RJOK 140600Z 34017KT 9999 FEW025 SCT050 BKN/// 09/M06 Q1024

Decode

TAF

TAF RJOK 140508Z 1406/1512 36012KT 9999 FEW025 SCT050 BECMG 1500/1503 18006KT BECMG 1506/1509 35005KT

Decode

Departure Runways

ID Width Length Bearing (true) Bearing (mag) Surface Threshold Offset Overrun Length
14 148 ft / 45 m 8,204 ft / 2,501 m 130.63° 138.02° Asphalt 0 ft / 0 m 200 ft / 61 m
32 148 ft / 45 m 8,204 ft / 2,501 m 310.64° 318.03° Asphalt 0 ft / 0 m 200 ft / 61 m

RJOT

Details ICAO RJOT (TAK)
Name TAKAMATSU
Region Japan
Timezone Asia/Tokyo (UTC+9.0)
Stats Elevation 607 ft / 185 m (AMSL)
Location 34.214053° 134.015772°
Runways 1
Magnetic Variation 7.585° W

METAR

RJOT 140600Z 04005KT 9999 FEW025 SCT040 BKN050 05/M01 Q1025

Decode

TAF

TAF RJOT 140505Z 1406/1512 06005KT 9999 FEW020 BKN040

Decode

Destination Runways

ID Width Length Bearing (true) Bearing (mag) Surface Threshold Offset Overrun Length
08 200 ft / 61 m 8,189 ft / 2,496 m 72.81° 80.39° Asphalt 0 ft / 0 m 210 ft / 64 m
26 200 ft / 61 m 8,189 ft / 2,496 m 252.83° 260.41° Asphalt 0 ft / 0 m 210 ft / 64 m

Approach Navaids

Runway Type Ident Frequency Range Bearing (true) Bearing (mag) Slope Elevation
26 Localiser IKT 109.70 MHz 18 nm / 33 km 252.81° 260.40° - 607 ft / 185 m (AMSL)
26 Glidescope IKT 109.70 MHz 10 nm / 19 km 252.82° 260.41° 3.00° 53 ft / 16 m (AMSL)
26 DME IKT 109.70 MHz 18 nm / 33 km - - - 606 ft / 185 m (AMSL)